Hillsboro, North Dakota
Current Conditions -  °F | °C
As of 12:53 AM on Sunday 26 Oct 2014 (Local Time) from KFAR Reporting Station
Clear Clear  
Wind Chill: 34°   Ceiling: Unl
Heat Index: 38°   Visibility: 10mi
Dew Point: 24°   Wind: 5mph
Humidity: 57%   Direction: 120°ESE
Pressure: 29.99"   Gusts: NA
Location:  47.4°N, 97.06°W
Report Text: KFAR 260553Z 12004KT 10SM CLR 03/M04 A2999 RMK AO2 SLP161 T00331044 10111 20017 401670017 58014
Loading
Personal Weather Stations






























Interactive Weather Map
Tropical Storm Tracking
New forecast layout! Learn more

10-Day Weather Forecast

Advertisements
Track Severe Weather on mobile